Oldenzaal, Netherlands
Current Conditions -  °F | °C
As of 3:20 PM on Thursday 29 Jan 2015 (Local Time) from ETHE Reporting Station
Broken Clouds Broken Clouds  
Wind Chill: 31°   Ceiling: 15000
Heat Index: 36°   Visibility: 6mi
Dew Point: 32°   Wind: 6mph
Humidity: 87%   Direction: 220°SW
Pressure: 28.94"   Gusts: NA
Location:  52.31°N, 6.93°E
Report Text: ETHE 291420Z 22005KT 9999 FEW013CB SCT020 BKN150 02/00 Q0980 RERASN BLU FCST CANCEL
Loading
Personal Weather Stations






























Interactive Weather Map New forecast layout! Learn more

10-Day Weather Forecast

Advertisements
Track Severe Weather on mobile